createdAt,value
2023-02-18T00:01:11.540Z,992.1
2023-02-18T00:03:12.869Z,992.1
2023-02-18T00:05:14.064Z,992.1
2023-02-18T00:07:15.061Z,992
2023-02-18T00:09:16.532Z,992.1
2023-02-18T00:11:17.845Z,992
2023-02-18T00:13:18.936Z,992.1
2023-02-18T00:15:20.837Z,992.1
2023-02-18T00:17:22.476Z,992
2023-02-18T00:21:25.713Z,992.1
2023-02-18T00:22:09.538Z,992
2023-02-18T00:26:12.576Z,992
2023-02-18T00:28:13.725Z,992.1
2023-02-18T00:30:14.882Z,991.9
2023-02-18T00:32:15.993Z,992
2023-02-18T00:34:17.121Z,991.9
2023-02-18T00:36:18.262Z,992
2023-02-18T00:38:19.629Z,992
2023-02-18T00:42:22.565Z,992
2023-02-18T00:44:24.259Z,991.9
2023-02-18T00:46:25.241Z,992
2023-02-18T00:48:26.713Z,992
2023-02-18T00:52:29.697Z,991.8
2023-02-18T00:54:31.317Z,991.8
2023-02-18T00:56:32.415Z,991.9
2023-02-18T00:58:33.724Z,991.9
2023-02-18T01:00:34.720Z,991.9
2023-02-18T01:02:35.705Z,991.7
2023-02-18T01:04:37.423Z,991.8
2023-02-18T01:06:38.621Z,991.8
2023-02-18T01:08:40.182Z,991.8
2023-02-18T01:10:41.946Z,991.9
2023-02-18T01:12:42.911Z,991.9
2023-02-18T01:14:44.050Z,991.8
2023-02-18T01:16:45.268Z,991.9
2023-02-18T01:18:46.777Z,991.8
2023-02-18T01:20:47.978Z,991.8
2023-02-18T01:22:49.295Z,991.7
2023-02-18T01:24:50.422Z,991.9
2023-02-18T01:26:51.363Z,991.8
2023-02-18T01:28:52.675Z,991.9
2023-02-18T01:30:53.915Z,991.8
2023-02-18T01:32:55.151Z,991.8
2023-02-18T01:34:56.689Z,991.7
2023-02-18T01:36:58.249Z,991.8
2023-02-18T01:39:00.033Z,991.6
2023-02-18T01:41:01.118Z,991.6
2023-02-18T01:43:02.588Z,991.6
2023-02-18T01:45:03.739Z,991.7
2023-02-18T01:47:05.014Z,991.6
2023-02-18T01:49:15.896Z,991.7
2023-02-18T01:51:08.263Z,991.6
2023-02-18T01:53:09.606Z,991.7
2023-02-18T01:57:12.861Z,991.6
2023-02-18T01:59:14.369Z,991.6
2023-02-18T02:01:15.797Z,991.6
2023-02-18T02:03:17.198Z,991.4
2023-02-18T02:05:18.964Z,991.5
2023-02-18T02:07:20.191Z,991.5
2023-02-18T02:09:21.441Z,991.5
2023-02-18T02:11:22.415Z,991.5
2023-02-18T02:13:24.047Z,991.4
2023-02-18T02:15:25.212Z,991.4
2023-02-18T02:17:26.556Z,991.5
2023-02-18T02:19:28.424Z,991.4
2023-02-18T02:21:30.167Z,991.4
2023-02-18T02:23:31.435Z,991.3
2023-02-18T02:25:32.952Z,991.3
2023-02-18T02:27:34.778Z,991.3
2023-02-18T02:29:35.800Z,991.4
2023-02-18T02:31:37.169Z,991.4
2023-02-18T02:33:38.187Z,991.3
2023-02-18T02:35:39.474Z,991.4
2023-02-18T02:39:42.625Z,991.4
2023-02-18T02:41:43.591Z,991.4
2023-02-18T02:43:44.944Z,991.4
2023-02-18T02:45:46.469Z,991.4
2023-02-18T02:47:47.813Z,991.3
2023-02-18T02:49:49.107Z,991.2
2023-02-18T02:51:50.127Z,991.2
2023-02-18T02:53:51.594Z,991.2
2023-02-18T02:55:52.673Z,991.2
2023-02-18T02:57:54.429Z,991.2
2023-02-18T02:59:56.253Z,991.2
2023-02-18T03:01:57.734Z,991.1
2023-02-18T03:06:00.309Z,991.2
2023-02-18T03:08:01.514Z,991.2
2023-02-18T03:10:03.209Z,991.1
2023-02-18T03:12:04.178Z,991.2
2023-02-18T03:16:07.881Z,991.1
2023-02-18T03:18:08.322Z,991.1
2023-02-18T03:20:09.792Z,991.2
2023-02-18T03:22:11.526Z,991.1
2023-02-18T03:24:12.634Z,991
2023-02-18T03:26:14.162Z,991.1
2023-02-18T03:28:15.578Z,991.1
2023-02-18T03:30:16.818Z,991.2
2023-02-18T03:32:18.586Z,991
2023-02-18T03:34:19.686Z,991.1
2023-02-18T03:36:21.494Z,991.1
2023-02-18T03:38:23.002Z,991.2
2023-02-18T03:40:24.711Z,991.1
2023-02-18T03:42:26.074Z,991
2023-02-18T03:44:27.408Z,991.1
2023-02-18T03:46:28.460Z,991
2023-02-18T03:48:29.689Z,990.9
2023-02-18T03:50:30.736Z,990.9
2023-02-18T03:52:32.373Z,990.9
2023-02-18T03:54:34.029Z,991
2023-02-18T03:56:35.556Z,990.9
2023-02-18T03:58:36.969Z,990.8
2023-02-18T04:00:38.753Z,991
2023-02-18T04:04:41.532Z,990.9
2023-02-18T04:06:43.201Z,991
2023-02-18T04:08:44.191Z,990.9
2023-02-18T04:10:45.161Z,991
2023-02-18T04:12:46.582Z,991.1
2023-02-18T04:14:47.834Z,991
2023-02-18T04:16:49.134Z,990.9
2023-02-18T04:20:51.920Z,991
2023-02-18T04:22:53.583Z,991
2023-02-18T04:24:54.680Z,991
2023-02-18T04:26:55.916Z,990.9
2023-02-18T04:28:57.462Z,990.9
2023-02-18T04:30:58.524Z,990.9
2023-02-18T04:33:00.154Z,990.9
2023-02-18T04:35:01.530Z,990.9
2023-02-18T04:37:02.664Z,990.9
2023-02-18T04:39:04.331Z,991.1
2023-02-18T04:41:05.379Z,991
2023-02-18T04:43:06.495Z,991
2023-02-18T04:45:07.633Z,990.9
2023-02-18T04:47:08.865Z,991.1
2023-02-18T04:49:10.278Z,991.1
2023-02-18T04:51:11.354Z,991
2023-02-18T04:53:12.527Z,991
2023-02-18T04:55:14.241Z,991
2023-02-18T04:57:15.598Z,991.1
2023-02-18T04:59:16.896Z,991.1
2023-02-18T05:01:18.648Z,991.1
2023-02-18T05:03:19.819Z,990.9
2023-02-18T05:05:21.387Z,990.9
2023-02-18T05:07:22.608Z,990.9
2023-02-18T05:09:24.205Z,990.9
2023-02-18T05:11:25.368Z,990.8
2023-02-18T05:13:26.299Z,990.9
2023-02-18T05:15:28.091Z,990.8
2023-02-18T05:17:29.643Z,990.9
2023-02-18T05:19:31.293Z,990.9
2023-02-18T05:21:32.746Z,990.8
2023-02-18T05:23:34.000Z,990.8
2023-02-18T05:25:35.417Z,990.9
2023-02-18T05:27:36.849Z,990.9
2023-02-18T05:29:37.885Z,990.9
2023-02-18T05:31:39.561Z,990.7
2023-02-18T05:33:40.761Z,990.9
2023-02-18T05:35:41.970Z,990.9
2023-02-18T05:37:42.897Z,990.7
2023-02-18T05:39:44.037Z,990.8
2023-02-18T05:41:45.678Z,990.9
2023-02-18T05:43:46.781Z,990.8
2023-02-18T05:45:48.437Z,990.8
2023-02-18T05:47:49.459Z,990.9
2023-02-18T05:49:50.580Z,990.9
2023-02-18T05:51:52.252Z,990.9
2023-02-18T05:53:53.579Z,990.8
2023-02-18T05:55:55.212Z,991
2023-02-18T05:57:56.344Z,990.9
2023-02-18T06:01:59.419Z,990.9
2023-02-18T06:04:00.503Z,990.9
2023-02-18T06:06:01.738Z,991
2023-02-18T06:08:02.674Z,991
2023-02-18T06:10:04.276Z,990.9
2023-02-18T06:12:05.190Z,990.8
2023-02-18T06:14:06.405Z,990.9
2023-02-18T06:16:08.237Z,990.9
2023-02-18T06:18:09.668Z,990.8
2023-02-18T06:20:11.465Z,990.6
2023-02-18T06:22:12.530Z,990.7
2023-02-18T06:24:13.745Z,990.7
2023-02-18T06:26:15.543Z,990.7
2023-02-18T06:28:17.088Z,990.8
2023-02-18T06:30:18.121Z,990.7
2023-02-18T06:32:20.051Z,990.8
2023-02-18T06:34:21.099Z,990.8
2023-02-18T06:36:22.456Z,990.7
2023-02-18T06:38:23.510Z,990.7
2023-02-18T06:40:24.579Z,990.7
2023-02-18T06:42:26.458Z,990.7
2023-02-18T06:44:27.827Z,990.8
2023-02-18T06:46:28.978Z,990.9
2023-02-18T06:48:30.273Z,990.7
2023-02-18T06:50:31.865Z,990.8
2023-02-18T06:52:33.237Z,990.8
2023-02-18T06:54:34.250Z,990.7
2023-02-18T06:56:35.740Z,990.7
2023-02-18T06:58:37.466Z,990.6
2023-02-18T07:00:39.328Z,990.5
2023-02-18T07:02:40.963Z,990.6
2023-02-18T07:04:42.687Z,990.4
2023-02-18T07:06:43.832Z,990.5
2023-02-18T07:07:27.594Z,990.5
2023-02-18T07:09:29.193Z,990.5
2023-02-18T07:11:30.260Z,990.4
2023-02-18T07:15:32.919Z,990.5
2023-02-18T07:17:34.245Z,990.5
2023-02-18T07:19:36.110Z,990.6
2023-02-18T07:21:38.034Z,990.5
2023-02-18T07:23:39.700Z,990.4
2023-02-18T07:25:40.865Z,990.3
2023-02-18T07:27:42.295Z,990.2
2023-02-18T07:29:43.365Z,990.2
2023-02-18T07:31:44.863Z,990.2
2023-02-18T07:33:45.855Z,990.2
2023-02-18T07:35:47.385Z,990.2
2023-02-18T07:37:48.676Z,990.2
2023-02-18T07:39:49.880Z,990.2
2023-02-18T07:41:50.808Z,990.2
2023-02-18T07:43:52.182Z,990.3
2023-02-18T07:45:53.898Z,990.2
2023-02-18T07:47:54.923Z,990.2
2023-02-18T07:49:56.219Z,990.3
2023-02-18T07:51:57.803Z,990.1
2023-02-18T07:53:59.409Z,990.1
2023-02-18T07:56:00.971Z,990.1
2023-02-18T07:58:02.703Z,990
2023-02-18T08:00:04.329Z,989.9
2023-02-18T08:04:07.505Z,990.1
2023-02-18T08:06:09.602Z,990.1
2023-02-18T08:08:10.377Z,990.1
2023-02-18T08:10:11.683Z,990
2023-02-18T08:12:13.504Z,989.8
2023-02-18T08:14:14.642Z,989.8
2023-02-18T08:16:16.273Z,989.8
2023-02-18T08:18:17.241Z,989.8
2023-02-18T08:20:19.058Z,989.8
2023-02-18T08:22:20.401Z,989.8
2023-02-18T08:24:21.702Z,989.8
2023-02-18T08:26:23.227Z,989.8
2023-02-18T08:28:25.065Z,989.9
2023-02-18T08:30:26.266Z,989.9
2023-02-18T08:32:27.578Z,989.9
2023-02-18T08:34:29.323Z,989.8
2023-02-18T08:36:30.944Z,989.8
2023-02-18T08:38:31.900Z,989.9
2023-02-18T08:40:33.580Z,989.9
2023-02-18T08:42:34.956Z,989.7
2023-02-18T08:44:36.576Z,989.8
2023-02-18T08:46:38.130Z,989.7
2023-02-18T08:48:39.345Z,989.8
2023-02-18T08:50:40.707Z,989.6
2023-02-18T08:52:42.202Z,989.7
2023-02-18T08:54:43.279Z,989.6
2023-02-18T08:56:44.692Z,989.6
2023-02-18T08:58:45.956Z,989.6
2023-02-18T09:02:48.601Z,989.6
2023-02-18T09:04:49.643Z,989.3
2023-02-18T09:06:51.066Z,989.4
2023-02-18T09:08:52.051Z,989.3
2023-02-18T09:10:53.026Z,989.3
2023-02-18T09:12:54.913Z,989.4
2023-02-18T09:14:55.975Z,989.4
2023-02-18T09:16:57.203Z,989.4
2023-02-18T09:18:58.821Z,989.5
2023-02-18T09:21:00.187Z,989.5
2023-02-18T09:23:01.714Z,989.4
2023-02-18T09:25:03.481Z,989.4
2023-02-18T09:29:06.147Z,989.4
2023-02-18T09:31:08.468Z,989.5
2023-02-18T09:33:09.116Z,989.4
2023-02-18T09:35:10.234Z,989.4
2023-02-18T09:39:13.480Z,989.4
2023-02-18T09:41:15.015Z,989.6
2023-02-18T09:43:16.812Z,989.5
2023-02-18T09:45:18.221Z,989.5
2023-02-18T09:47:19.970Z,989.4
2023-02-18T09:49:21.117Z,989.6
2023-02-18T09:51:22.677Z,989.5
2023-02-18T09:53:24.111Z,989.6
2023-02-18T09:55:25.786Z,989.6
2023-02-18T09:57:27.517Z,989.4
2023-02-18T09:59:28.994Z,989.4
2023-02-18T10:01:30.092Z,989.4
2023-02-18T10:03:31.200Z,989.5
2023-02-18T10:05:32.505Z,989.4
2023-02-18T10:07:33.891Z,989.4
2023-02-18T10:09:35.712Z,989.4
2023-02-18T10:11:36.752Z,989.4
2023-02-18T10:13:38.484Z,989.4
2023-02-18T10:15:40.950Z,989.4
2023-02-18T10:17:55.545Z,989.4
2023-02-18T10:22:50.480Z,989.3
2023-02-18T10:27:58.796Z,989.3
2023-02-18T10:30:35.404Z,989.1
2023-02-18T10:33:55.794Z,989.2
2023-02-18T10:36:16.552Z,989
2023-02-18T10:37:54.560Z,989.1
2023-02-18T10:39:56.147Z,989.1
2023-02-18T10:42:48.309Z,989.2
2023-02-18T10:43:59.399Z,989.1
2023-02-18T10:48:33.155Z,989.1
2023-02-18T10:50:29.546Z,989
2023-02-18T10:53:51.089Z,989
2023-02-18T10:59:43.724Z,989
2023-02-18T11:02:44.262Z,989
2023-02-18T11:04:12.774Z,989.2
2023-02-18T11:06:37.084Z,989.1
2023-02-18T11:08:40.570Z,989.2
2023-02-18T11:14:23.698Z,989.2
2023-02-18T11:16:40.259Z,989.1
2023-02-18T11:20:23.992Z,989
2023-02-18T11:23:32.161Z,989
2023-02-18T11:26:28.838Z,989
2023-02-18T11:32:33.024Z,988.9
2023-02-18T11:36:08.456Z,988.9
2023-02-18T11:38:38.215Z,988.8
2023-02-18T11:40:40.870Z,988.7
2023-02-18T11:43:01.848Z,988.8
2023-02-18T11:45:41.464Z,988.6
2023-02-18T11:46:51.989Z,988.7
2023-02-18T11:49:11.984Z,988.8
2023-02-18T11:51:58.238Z,988.8
2023-02-18T11:53:59.367Z,988.7
2023-02-18T11:55:11.901Z,988.6
2023-02-18T11:56:53.831Z,988.7
2023-02-18T11:58:52.138Z,988.6
2023-02-18T12:01:22.588Z,988.6
2023-02-18T12:02:56.203Z,988.7
2023-02-18T12:05:37.847Z,988.6
2023-02-18T12:07:46.904Z,988.7
2023-02-18T12:10:14.851Z,988.6
2023-02-18T12:11:38.108Z,988.6
2023-02-18T12:15:03.520Z,988.4
2023-02-18T12:17:10.201Z,988.4
2023-02-18T12:19:35.410Z,988.5
2023-02-18T12:21:46.015Z,988.3
2023-02-18T12:24:45.009Z,988.6
2023-02-18T12:25:51.768Z,988.4
2023-02-18T12:31:14.386Z,988.4
2023-02-18T12:33:16.042Z,988.5
2023-02-18T12:35:17.408Z,988.5
2023-02-18T12:37:19.109Z,988.4
2023-02-18T12:39:20.857Z,988.5
2023-02-18T12:41:22.245Z,988.5
2023-02-18T12:43:23.694Z,988.5
2023-02-18T12:45:24.612Z,988.5
2023-02-18T12:47:26.011Z,988.3
2023-02-18T12:49:27.303Z,988.3
2023-02-18T12:51:30.306Z,988.4
2023-02-18T12:53:29.648Z,988.2
2023-02-18T12:55:31.286Z,988.2
2023-02-18T12:57:32.251Z,988.2
2023-02-18T12:59:33.486Z,988.3
2023-02-18T13:01:35.069Z,988.2
2023-02-18T13:03:35.988Z,988.4
2023-02-18T13:05:37.742Z,988.2
2023-02-18T13:07:39.488Z,988.2
2023-02-18T13:09:40.909Z,988.3
2023-02-18T13:11:42.628Z,988.4
2023-02-18T13:13:44.354Z,988.4
2023-02-18T13:17:46.606Z,988.4
2023-02-18T13:19:48.426Z,988.3
2023-02-18T13:23:51.354Z,988.4
2023-02-18T13:25:52.913Z,988.3
2023-02-18T13:27:54.133Z,988.3
2023-02-18T13:29:55.702Z,988.2
2023-02-18T13:31:56.722Z,988.3
2023-02-18T13:33:57.712Z,988.1
2023-02-18T13:35:59.144Z,988.2
2023-02-18T13:38:00.668Z,988.2
2023-02-18T13:40:01.544Z,988.2
2023-02-18T13:42:02.782Z,988.3
2023-02-18T13:44:03.871Z,988.2
2023-02-18T13:46:05.134Z,988.2
2023-02-18T13:48:06.292Z,988.2
2023-02-18T13:50:07.783Z,988.2
2023-02-18T13:52:19.282Z,988.2
2023-02-18T13:55:04.049Z,988
2023-02-18T13:57:05.076Z,988.1
2023-02-18T13:59:07.208Z,987.9
2023-02-18T14:01:08.363Z,987.6
2023-02-18T14:03:09.847Z,987.8
2023-02-18T14:05:11.305Z,987.8
2023-02-18T14:07:12.733Z,988
2023-02-18T14:09:14.494Z,988.1
2023-02-18T14:11:15.359Z,988.1
2023-02-18T14:13:16.891Z,988.1
2023-02-18T14:15:18.292Z,987.9
2023-02-18T14:17:19.556Z,987.9
2023-02-18T14:19:20.524Z,988
2023-02-18T14:21:21.952Z,988.1
2023-02-18T14:23:23.674Z,988.1
2023-02-18T14:25:25.347Z,988.1
2023-02-18T14:27:26.234Z,988.2
2023-02-18T14:29:27.451Z,988.2
2023-02-18T14:31:30.834Z,988.1
2023-02-18T14:33:30.922Z,988.1
2023-02-18T14:35:32.595Z,988.2
2023-02-18T14:37:33.856Z,988.2
2023-02-18T14:39:34.912Z,988.1
2023-02-18T14:43:37.154Z,987.9
2023-02-18T14:45:38.376Z,988.2
2023-02-18T14:47:39.348Z,988.3
2023-02-18T14:49:40.570Z,988.1
2023-02-18T14:51:42.361Z,988.2
2023-02-18T14:53:43.709Z,988.1
2023-02-18T14:55:44.746Z,988.3
2023-02-18T14:57:45.989Z,988.1
2023-02-18T14:59:47.667Z,988.2
2023-02-18T15:01:48.209Z,988.3
2023-02-18T15:03:49.165Z,988.2
2023-02-18T15:05:50.796Z,988.2
2023-02-18T15:07:52.236Z,988.1
2023-02-18T15:09:54.064Z,988.1
2023-02-18T15:11:55.536Z,988.2
2023-02-18T15:13:56.867Z,988.1
2023-02-18T15:15:57.833Z,988
2023-02-18T15:17:59.337Z,988.1
2023-02-18T15:20:00.429Z,988.1
2023-02-18T15:22:01.882Z,988.3
2023-02-18T15:24:03.298Z,988.3
2023-02-18T15:26:05.099Z,988.4
2023-02-18T15:28:06.914Z,988.4
2023-02-18T15:30:08.499Z,988.3
2023-02-18T15:32:10.178Z,988.3
2023-02-18T15:34:10.967Z,988.4
2023-02-18T15:36:12.549Z,988.2
2023-02-18T15:38:13.924Z,988.4
2023-02-18T15:42:16.450Z,988.4
2023-02-18T15:44:17.422Z,988.2
2023-02-18T15:46:18.922Z,988.5
2023-02-18T15:48:20.520Z,988.4
2023-02-18T15:50:21.968Z,988.5
2023-02-18T15:52:23.121Z,988.5
2023-02-18T15:54:24.478Z,988.4
2023-02-18T15:56:25.789Z,988.4
2023-02-18T15:58:26.889Z,988.4
2023-02-18T16:00:27.875Z,988.5
2023-02-18T16:02:29.170Z,988.6
2023-02-18T16:04:30.364Z,988.5
2023-02-18T16:06:31.360Z,988.6
2023-02-18T16:08:32.388Z,988.6
2023-02-18T16:10:33.647Z,988.4
2023-02-18T16:12:35.468Z,988.6
2023-02-18T16:14:37.079Z,988.4
2023-02-18T16:16:38.907Z,988.6
2023-02-18T16:18:40.290Z,988.5
2023-02-18T16:20:41.560Z,988.5
2023-02-18T16:24:44.552Z,988.6
2023-02-18T16:26:45.715Z,988.6
2023-02-18T16:28:47.100Z,988.6
2023-02-18T16:30:48.194Z,988.6
2023-02-18T16:32:49.643Z,988.6
2023-02-18T16:34:51.090Z,988.7
2023-02-18T16:36:52.058Z,988.7
2023-02-18T16:38:53.261Z,988.7
2023-02-18T16:40:55.049Z,988.7
2023-02-18T16:42:56.581Z,988.7
2023-02-18T16:44:58.079Z,988.7
2023-02-18T16:46:59.007Z,988.6
2023-02-18T16:49:00.385Z,988.7
2023-02-18T16:51:01.307Z,988.6
2023-02-18T16:53:02.276Z,988.8
2023-02-18T16:55:03.788Z,989
2023-02-18T16:57:04.858Z,988.8
2023-02-18T16:59:05.930Z,988.9
2023-02-18T17:01:07.542Z,988.9
2023-02-18T17:03:09.021Z,988.8
2023-02-18T17:05:24.471Z,988.8
2023-02-18T17:07:11.434Z,988.9
2023-02-18T17:09:14.942Z,988.9
2023-02-18T17:11:14.931Z,989
2023-02-18T17:13:16.677Z,989
2023-02-18T17:17:19.847Z,989.1
2023-02-18T17:19:20.939Z,989.1
2023-02-18T17:21:22.563Z,989.1
2023-02-18T17:23:23.731Z,989.1
2023-02-18T17:25:25.286Z,989.1
2023-02-18T17:27:26.903Z,989.2
2023-02-18T17:29:28.528Z,989.2
2023-02-18T17:31:29.564Z,989.2
2023-02-18T17:33:30.761Z,989.1
2023-02-18T17:35:31.869Z,989.1
2023-02-18T17:37:32.961Z,989.1
2023-02-18T17:39:34.711Z,989.2
2023-02-18T17:41:35.857Z,989.2
2023-02-18T17:43:37.020Z,989.2
2023-02-18T17:45:38.211Z,989.3
2023-02-18T17:49:41.133Z,989.5
2023-02-18T17:51:42.564Z,989.3
2023-02-18T17:53:43.951Z,989.5
2023-02-18T17:55:45.520Z,989.4
2023-02-18T17:59:48.909Z,989.5
2023-02-18T18:01:50.029Z,989.5
2023-02-18T18:03:51.180Z,989.5
2023-02-18T18:05:52.361Z,989.5
2023-02-18T18:07:54.052Z,989.4
2023-02-18T18:09:55.847Z,989.5
2023-02-18T18:11:57.277Z,989.4
2023-02-18T18:13:58.501Z,989.4
2023-02-18T18:16:00.258Z,989.5
2023-02-18T18:18:01.550Z,989.4
2023-02-18T18:20:02.554Z,989.5
2023-02-18T18:22:03.553Z,989.5
2023-02-18T18:24:05.391Z,989.5
2023-02-18T18:26:06.772Z,989.5
2023-02-18T18:28:08.402Z,989.4
2023-02-18T18:30:10.014Z,989.4
2023-02-18T18:32:11.228Z,989.4
2023-02-18T18:34:12.833Z,989.4
2023-02-18T18:36:13.929Z,989.4
2023-02-18T18:38:15.429Z,989.3
2023-02-18T18:40:16.668Z,989.4
2023-02-18T18:42:18.489Z,989.4
2023-02-18T18:44:19.573Z,989.3
2023-02-18T18:48:22.099Z,989.3
2023-02-18T18:50:23.705Z,989.3
2023-02-18T18:52:24.917Z,989.5
2023-02-18T18:54:26.286Z,989.5
2023-02-18T18:56:27.266Z,989.5
2023-02-18T18:58:28.393Z,989.5
2023-02-18T19:00:29.636Z,989.5
2023-02-18T19:04:32.441Z,989.5
2023-02-18T19:06:33.725Z,989.5
2023-02-18T19:08:35.139Z,989.5
2023-02-18T19:10:36.464Z,989.5
2023-02-18T19:12:38.301Z,989.5
2023-02-18T19:14:39.602Z,989.6
2023-02-18T19:16:41.003Z,989.5
2023-02-18T19:18:42.513Z,989.6
2023-02-18T19:20:43.770Z,989.6
2023-02-18T19:22:44.827Z,989.5
2023-02-18T19:24:46.081Z,989.5
2023-02-18T19:26:47.641Z,989.5
2023-02-18T19:28:49.500Z,989.6
2023-02-18T19:30:50.457Z,989.6
2023-02-18T19:32:51.987Z,989.5
2023-02-18T19:34:53.631Z,989.5
2023-02-18T19:36:55.048Z,989.5
2023-02-18T19:38:55.940Z,989.5
2023-02-18T19:40:57.210Z,989.6
2023-02-18T19:42:58.106Z,989.6
2023-02-18T19:44:59.059Z,989.5
2023-02-18T19:47:00.629Z,989.4
2023-02-18T19:49:01.883Z,989.5
2023-02-18T19:51:03.074Z,989.5
2023-02-18T19:53:04.962Z,989.6
2023-02-18T19:55:06.537Z,989.5
2023-02-18T19:57:08.009Z,989.5
2023-02-18T19:59:09.442Z,989.6
2023-02-18T20:01:10.541Z,989.5
2023-02-18T20:03:11.277Z,989.5
2023-02-18T20:05:13.039Z,989.5
2023-02-18T20:07:14.552Z,989.5
2023-02-18T20:09:15.843Z,989.6
2023-02-18T20:11:17.558Z,989.5
2023-02-18T20:13:19.236Z,989.6
2023-02-18T20:15:21.066Z,989.6
2023-02-18T20:17:22.912Z,989.5
2023-02-18T20:19:23.874Z,989.6
2023-02-18T20:23:26.688Z,989.6
2023-02-18T20:25:28.261Z,989.6
2023-02-18T20:29:30.576Z,989.6
2023-02-18T20:31:31.679Z,989.6
2023-02-18T20:33:32.633Z,989.6
2023-02-18T20:35:34.466Z,989.6
2023-02-18T20:37:36.097Z,989.6
2023-02-18T20:40:21.507Z,989.6
2023-02-18T20:42:23.377Z,989.4
2023-02-18T20:44:24.573Z,989.4
2023-02-18T20:46:25.879Z,989.5
2023-02-18T20:48:27.128Z,989.4
2023-02-18T20:50:28.307Z,989.4
2023-02-18T20:52:29.272Z,989.3
2023-02-18T20:54:30.760Z,989.3
2023-02-18T20:56:31.877Z,989.5
2023-02-18T20:58:33.031Z,989.4
2023-02-18T21:00:34.745Z,989.6
2023-02-18T21:02:35.951Z,989.6
2023-02-18T21:04:37.165Z,989.6
2023-02-18T21:06:38.831Z,989.5
2023-02-18T21:08:40.631Z,989.4
2023-02-18T21:10:40.968Z,989.4
2023-02-18T21:12:42.533Z,989.5
2023-02-18T21:14:43.536Z,989.5
2023-02-18T21:16:44.993Z,989.5
2023-02-18T21:18:45.970Z,989.5
2023-02-18T21:20:47.557Z,989.4
2023-02-18T21:22:49.376Z,989.5
2023-02-18T21:24:50.800Z,989.3
2023-02-18T21:26:51.847Z,989.4
2023-02-18T21:28:52.971Z,989.6
2023-02-18T21:30:53.960Z,989.5
2023-02-18T21:32:55.019Z,989.5
2023-02-18T21:34:56.200Z,989.5
2023-02-18T21:36:57.421Z,989.5
2023-02-18T21:38:58.632Z,989.6
2023-02-18T21:41:00.190Z,989.6
2023-02-18T21:43:01.669Z,989.5
2023-02-18T21:45:02.607Z,989.5
2023-02-18T21:47:04.403Z,989.6
2023-02-18T21:49:06.156Z,989.6
2023-02-18T21:51:07.084Z,989.5
2023-02-18T21:53:08.591Z,989.4
2023-02-18T21:55:09.827Z,989.4
2023-02-18T21:57:11.608Z,989.3
2023-02-18T21:59:12.565Z,989.3
2023-02-18T22:01:13.598Z,989.4
2023-02-18T22:05:16.596Z,989.4
2023-02-18T22:07:18.353Z,989.4
2023-02-18T22:09:20.034Z,989.4
2023-02-18T22:11:21.384Z,989.3
2023-02-18T22:13:23.161Z,989.3
2023-02-18T22:15:24.595Z,989.2
2023-02-18T22:17:26.323Z,989.3
2023-02-18T22:19:28.127Z,989.2
2023-02-18T22:21:29.115Z,989.2
2023-02-18T22:23:30.058Z,989.2
2023-02-18T22:25:31.832Z,989.2
2023-02-18T22:27:33.591Z,989.1
2023-02-18T22:29:35.330Z,989.1
2023-02-18T22:31:36.712Z,989.2
2023-02-18T22:33:37.926Z,989.3
2023-02-18T22:35:39.612Z,989.2
2023-02-18T22:37:40.609Z,989.2
2023-02-18T22:39:42.037Z,989.2
2023-02-18T22:41:43.945Z,989.1
2023-02-18T22:43:45.882Z,989.1
2023-02-18T22:47:48.085Z,989.1
2023-02-18T22:49:49.256Z,989.1
2023-02-18T22:51:50.458Z,989
2023-02-18T22:53:52.055Z,989
2023-02-18T22:55:53.698Z,989.1
2023-02-18T22:57:54.657Z,989
2023-02-18T22:59:56.437Z,989
2023-02-18T23:03:58.617Z,989
2023-02-18T23:05:59.966Z,989
2023-02-18T23:08:01.700Z,989
2023-02-18T23:10:02.627Z,989
2023-02-18T23:12:03.807Z,988.9
2023-02-18T23:14:04.946Z,988.9
2023-02-18T23:16:06.100Z,988.9
2023-02-18T23:18:07.816Z,989
2023-02-18T23:20:08.920Z,988.8
2023-02-18T23:22:10.327Z,988.8
2023-02-18T23:24:11.623Z,988.9
2023-02-18T23:26:13.348Z,988.8
2023-02-18T23:28:15.189Z,988.7
2023-02-18T23:30:26.070Z,988.7
2023-02-18T23:32:18.072Z,988.7
2023-02-18T23:34:19.588Z,988.8
2023-02-18T23:36:21.121Z,988.8
2023-02-18T23:38:22.852Z,988.8
2023-02-18T23:40:23.938Z,988.8
2023-02-18T23:42:24.946Z,988.7
2023-02-18T23:44:26.724Z,988.8
2023-02-18T23:46:28.166Z,988.8
2023-02-18T23:48:29.423Z,988.7
2023-02-18T23:50:30.823Z,988.7
2023-02-18T23:52:31.937Z,988.6
2023-02-18T23:54:33.739Z,988.8
2023-02-18T23:56:34.895Z,988.6
2023-02-18T23:58:36.257Z,988.8
